sensor_id;sensor_type;location;lat;lon;timestamp;temperature;humidity
11762;DHT22;5938;47.098;15.474;2023-09-18T00:03:32;14.40;99.90
11762;DHT22;5938;47.098;15.474;2023-09-18T00:07:37;14.50;99.90
11762;DHT22;5938;47.098;15.474;2023-09-18T00:11:41;14.50;99.90
11762;DHT22;5938;47.098;15.474;2023-09-18T00:15:44;14.40;99.90
11762;DHT22;5938;47.098;15.474;2023-09-18T00:19:49;14.40;99.90
11762;DHT22;5938;47.098;15.474;2023-09-18T00:23:55;14.40;99.90
11762;DHT22;5938;47.098;15.474;2023-09-18T00:27:58;14.40;99.90
11762;DHT22;5938;47.098;15.474;2023-09-18T00:32:02;14.30;99.90
11762;DHT22;5938;47.098;15.474;2023-09-18T00:36:05;14.30;99.90
11762;DHT22;5938;47.098;15.474;2023-09-18T00:40:12;14.30;99.90
11762;DHT22;5938;47.098;15.474;2023-09-18T00:44:16;14.30;99.90
11762;DHT22;5938;47.098;15.474;2023-09-18T00:48:19;14.30;99.90
11762;DHT22;5938;47.098;15.474;2023-09-18T00:52:25;14.20;99.90
11762;DHT22;5938;47.098;15.474;2023-09-18T00:56:32;14.20;99.90
11762;DHT22;5938;47.098;15.474;2023-09-18T01:00:36;14.20;99.90
11762;DHT22;5938;47.098;15.474;2023-09-18T01:04:41;14.10;99.90
11762;DHT22;5938;47.098;15.474;2023-09-18T01:08:46;14.10;99.90
11762;DHT22;5938;47.098;15.474;2023-09-18T01:12:58;14.10;99.90
11762;DHT22;5938;47.098;15.474;2023-09-18T01:17:10;14.10;99.90
11762;DHT22;5938;47.098;15.474;2023-09-18T01:21:14;14.00;99.90
11762;DHT22;5938;47.098;15.474;2023-09-18T01:25:19;14.00;99.90
11762;DHT22;5938;47.098;15.474;2023-09-18T01:29:22;14.10;99.90
11762;DHT22;5938;47.098;15.474;2023-09-18T01:33:26;14.00;99.90
11762;DHT22;5938;47.098;15.474;2023-09-18T01:37:31;14.00;99.90
11762;DHT22;5938;47.098;15.474;2023-09-18T01:41:36;13.90;99.90
11762;DHT22;5938;47.098;15.474;2023-09-18T01:45:40;13.90;99.90
11762;DHT22;5938;47.098;15.474;2023-09-18T01:49:44;13.80;99.90
11762;DHT22;5938;47.098;15.474;2023-09-18T01:53:48;13.80;99.90
11762;DHT22;5938;47.098;15.474;2023-09-18T01:57:53;13.80;99.90
11762;DHT22;5938;47.098;15.474;2023-09-18T02:01:56;13.80;99.90
11762;DHT22;5938;47.098;15.474;2023-09-18T02:06:00;13.80;99.90
11762;DHT22;5938;47.098;15.474;2023-09-18T02:10:05;13.80;99.90
11762;DHT22;5938;47.098;15.474;2023-09-18T02:14:10;13.70;99.90
11762;DHT22;5938;47.098;15.474;2023-09-18T02:18:14;13.70;99.90
11762;DHT22;5938;47.098;15.474;2023-09-18T02:22:18;13.70;99.90
11762;DHT22;5938;47.098;15.474;2023-09-18T02:26:22;13.60;99.90
11762;DHT22;5938;47.098;15.474;2023-09-18T02:30:28;13.60;99.90
11762;DHT22;5938;47.098;15.474;2023-09-18T02:34:31;13.60;99.90
11762;DHT22;5938;47.098;15.474;2023-09-18T02:38:35;13.50;99.90
11762;DHT22;5938;47.098;15.474;2023-09-18T02:42:39;13.50;99.90
11762;DHT22;5938;47.098;15.474;2023-09-18T02:46:43;13.50;99.90
11762;DHT22;5938;47.098;15.474;2023-09-18T02:50:47;13.50;99.90
11762;DHT22;5938;47.098;15.474;2023-09-18T02:54:50;13.40;99.90
11762;DHT22;5938;47.098;15.474;2023-09-18T02:58:54;13.40;99.90
11762;DHT22;5938;47.098;15.474;2023-09-18T03:02:58;13.40;99.90
11762;DHT22;5938;47.098;15.474;2023-09-18T03:07:03;13.40;99.90
11762;DHT22;5938;47.098;15.474;2023-09-18T03:11:11;13.40;99.90
11762;DHT22;5938;47.098;15.474;2023-09-18T03:15:15;13.40;99.90
11762;DHT22;5938;47.098;15.474;2023-09-18T03:19:20;13.40;99.90
11762;DHT22;5938;47.098;15.474;2023-09-18T03:23:24;13.40;99.90
11762;DHT22;5938;47.098;15.474;2023-09-18T03:27:27;13.40;99.90
11762;DHT22;5938;47.098;15.474;2023-09-18T03:31:33;13.30;99.90
11762;DHT22;5938;47.098;15.474;2023-09-18T03:35:47;13.30;99.90
11762;DHT22;5938;47.098;15.474;2023-09-18T03:39:51;13.20;99.90
11762;DHT22;5938;47.098;15.474;2023-09-18T03:43:55;13.20;99.90
11762;DHT22;5938;47.098;15.474;2023-09-18T03:47:58;13.20;99.90
11762;DHT22;5938;47.098;15.474;2023-09-18T03:52:04;13.10;99.90
11762;DHT22;5938;47.098;15.474;2023-09-18T03:56:08;13.10;99.90
11762;DHT22;5938;47.098;15.474;2023-09-18T04:00:12;13.00;99.90
11762;DHT22;5938;47.098;15.474;2023-09-18T04:04:15;13.00;99.90
11762;DHT22;5938;47.098;15.474;2023-09-18T04:08:20;12.90;99.90
11762;DHT22;5938;47.098;15.474;2023-09-18T04:12:23;12.90;99.90
11762;DHT22;5938;47.098;15.474;2023-09-18T04:16:27;12.90;99.90
11762;DHT22;5938;47.098;15.474;2023-09-18T04:20:32;12.90;99.90
11762;DHT22;5938;47.098;15.474;2023-09-18T04:24:39;12.80;99.90
11762;DHT22;5938;47.098;15.474;2023-09-18T04:28:42;12.80;99.90
11762;DHT22;5938;47.098;15.474;2023-09-18T04:32:46;12.80;99.90
11762;DHT22;5938;47.098;15.474;2023-09-18T04:36:49;12.80;99.90
11762;DHT22;5938;47.098;15.474;2023-09-18T04:40:59;12.80;99.90
11762;DHT22;5938;47.098;15.474;2023-09-18T04:45:03;12.80;99.90
11762;DHT22;5938;47.098;15.474;2023-09-18T04:49:07;12.80;99.90
11762;DHT22;5938;47.098;15.474;2023-09-18T04:53:13;12.80;99.90
11762;DHT22;5938;47.098;15.474;2023-09-18T04:57:18;12.80;99.90
11762;DHT22;5938;47.098;15.474;2023-09-18T05:01:21;12.80;99.90
11762;DHT22;5938;47.098;15.474;2023-09-18T05:05:24;12.90;99.90
11762;DHT22;5938;47.098;15.474;2023-09-18T05:09:28;12.90;99.90
11762;DHT22;5938;47.098;15.474;2023-09-18T05:13:34;13.00;99.90
11762;DHT22;5938;47.098;15.474;2023-09-18T05:17:41;13.10;99.90
11762;DHT22;5938;47.098;15.474;2023-09-18T05:21:46;13.10;99.90
11762;DHT22;5938;47.098;15.474;2023-09-18T05:25:50;13.20;99.90
11762;DHT22;5938;47.098;15.474;2023-09-18T05:29:55;13.30;99.90
11762;DHT22;5938;47.098;15.474;2023-09-18T05:33:59;13.30;99.90
11762;DHT22;5938;47.098;15.474;2023-09-18T05:38:03;13.40;99.90
11762;DHT22;5938;47.098;15.474;2023-09-18T05:42:07;13.50;99.90
11762;DHT22;5938;47.098;15.474;2023-09-18T05:46:12;13.60;99.90
11762;DHT22;5938;47.098;15.474;2023-09-18T05:50:16;13.70;99.90
11762;DHT22;5938;47.098;15.474;2023-09-18T05:54:20;13.70;99.90
11762;DHT22;5938;47.098;15.474;2023-09-18T05:58:24;13.90;99.90
11762;DHT22;5938;47.098;15.474;2023-09-18T06:02:30;14.00;99.90
11762;DHT22;5938;47.098;15.474;2023-09-18T06:06:33;14.00;99.90
11762;DHT22;5938;47.098;15.474;2023-09-18T06:10:36;14.20;99.90
11762;DHT22;5938;47.098;15.474;2023-09-18T06:14:40;14.30;99.90
11762;DHT22;5938;47.098;15.474;2023-09-18T06:18:45;14.50;99.90
11762;DHT22;5938;47.098;15.474;2023-09-18T06:22:49;14.70;99.90
11762;DHT22;5938;47.098;15.474;2023-09-18T06:26:52;14.90;99.90
11762;DHT22;5938;47.098;15.474;2023-09-18T06:30:56;15.10;99.90
11762;DHT22;5938;47.098;15.474;2023-09-18T06:35:01;15.40;99.90
11762;DHT22;5938;47.098;15.474;2023-09-18T06:39:05;15.60;99.90
11762;DHT22;5938;47.098;15.474;2023-09-18T06:43:08;15.80;99.90
11762;DHT22;5938;47.098;15.474;2023-09-18T06:47:12;15.90;99.90
11762;DHT22;5938;47.098;15.474;2023-09-18T06:51:18;16.30;99.90
11762;DHT22;5938;47.098;15.474;2023-09-18T06:55:41;16.50;99.90
11762;DHT22;5938;47.098;15.474;2023-09-18T06:59:44;16.80;99.90
11762;DHT22;5938;47.098;15.474;2023-09-18T07:03:48;17.10;99.90
11762;DHT22;5938;47.098;15.474;2023-09-18T07:07:53;17.50;99.90
11762;DHT22;5938;47.098;15.474;2023-09-18T07:11:59;17.90;99.90
11762;DHT22;5938;47.098;15.474;2023-09-18T07:16:02;18.40;99.90
11762;DHT22;5938;47.098;15.474;2023-09-18T07:20:06;18.70;99.90
11762;DHT22;5938;47.098;15.474;2023-09-18T07:24:18;19.10;99.90
11762;DHT22;5938;47.098;15.474;2023-09-18T07:28:23;19.40;99.90
11762;DHT22;5938;47.098;15.474;2023-09-18T07:32:26;19.70;99.90
11762;DHT22;5938;47.098;15.474;2023-09-18T07:36:39;20.00;99.90
11762;DHT22;5938;47.098;15.474;2023-09-18T07:40:43;20.20;99.90
11762;DHT22;5938;47.098;15.474;2023-09-18T07:44:48;20.30;99.90
11762;DHT22;5938;47.098;15.474;2023-09-18T07:48:52;20.60;99.90
11762;DHT22;5938;47.098;15.474;2023-09-18T07:52:56;20.90;99.90
11762;DHT22;5938;47.098;15.474;2023-09-18T07:57:01;21.10;99.90
11762;DHT22;5938;47.098;15.474;2023-09-18T08:01:04;21.30;99.90
11762;DHT22;5938;47.098;15.474;2023-09-18T08:05:08;21.50;99.90
11762;DHT22;5938;47.098;15.474;2023-09-18T08:09:13;21.90;99.90
11762;DHT22;5938;47.098;15.474;2023-09-18T08:13:19;21.90;99.90
11762;DHT22;5938;47.098;15.474;2023-09-18T08:17:22;22.40;99.90
11762;DHT22;5938;47.098;15.474;2023-09-18T08:21:26;22.50;99.90
11762;DHT22;5938;47.098;15.474;2023-09-18T08:25:31;22.30;99.90
11762;DHT22;5938;47.098;15.474;2023-09-18T08:29:37;22.70;99.90
11762;DHT22;5938;47.098;15.474;2023-09-18T08:33:43;23.20;99.90
11762;DHT22;5938;47.098;15.474;2023-09-18T08:37:48;23.60;99.90
11762;DHT22;5938;47.098;15.474;2023-09-18T08:41:56;24.50;99.90
11762;DHT22;5938;47.098;15.474;2023-09-18T08:46:01;24.70;99.90
11762;DHT22;5938;47.098;15.474;2023-09-18T08:50:07;24.90;99.90
11762;DHT22;5938;47.098;15.474;2023-09-18T08:54:12;26.70;98.00
11762;DHT22;5938;47.098;15.474;2023-09-18T08:58:16;26.70;98.00
11762;DHT22;5938;47.098;15.474;2023-09-18T09:02:23;27.70;95.80
11762;DHT22;5938;47.098;15.474;2023-09-18T09:06:26;28.00;94.50
11762;DHT22;5938;47.098;15.474;2023-09-18T09:10:30;29.00;92.90
11762;DHT22;5938;47.098;15.474;2023-09-18T09:14:33;29.70;91.50
11762;DHT22;5938;47.098;15.474;2023-09-18T09:18:48;29.90;91.10
11762;DHT22;5938;47.098;15.474;2023-09-18T09:23:00;28.90;91.70
11762;DHT22;5938;47.098;15.474;2023-09-18T09:27:04;28.80;91.80
11762;DHT22;5938;47.098;15.474;2023-09-18T09:31:09;29.80;90.40
11762;DHT22;5938;47.098;15.474;2023-09-18T09:35:21;30.00;90.00
11762;DHT22;5938;47.098;15.474;2023-09-18T09:39:24;28.80;90.90
11762;DHT22;5938;47.098;15.474;2023-09-18T09:43:31;28.30;91.80
11762;DHT22;5938;47.098;15.474;2023-09-18T09:47:35;28.60;91.30
11762;DHT22;5938;47.098;15.474;2023-09-18T09:51:42;29.00;90.80
11762;DHT22;5938;47.098;15.474;2023-09-18T09:55:54;27.70;92.30
11762;DHT22;5938;47.098;15.474;2023-09-18T10:00:03;26.90;93.60
11762;DHT22;5938;47.098;15.474;2023-09-18T10:04:24;26.40;94.20
11762;DHT22;5938;47.098;15.474;2023-09-18T10:08:34;26.40;94.90
11762;DHT22;5938;47.098;15.474;2023-09-18T10:18:18;29.70;90.20
11762;DHT22;5938;47.098;15.474;2023-09-18T10:22:28;29.80;89.80
11762;DHT22;5938;47.098;15.474;2023-09-18T10:26:44;28.00;91.60
11762;DHT22;5938;47.098;15.474;2023-09-18T10:30:50;27.40;92.30
11762;DHT22;5938;47.098;15.474;2023-09-18T10:34:55;26.60;93.50
11762;DHT22;5938;47.098;15.474;2023-09-18T10:39:02;26.80;93.90
11762;DHT22;5938;47.098;15.474;2023-09-18T10:43:11;27.00;94.20
11762;DHT22;5938;47.098;15.474;2023-09-18T10:47:16;28.80;91.60
11762;DHT22;5938;47.098;15.474;2023-09-18T10:51:21;29.70;89.80
11762;DHT22;5938;47.098;15.474;2023-09-18T10:55:25;30.60;89.10
11762;DHT22;5938;47.098;15.474;2023-09-18T10:59:31;32.10;85.90
11762;DHT22;5938;47.098;15.474;2023-09-18T11:03:38;33.70;80.20
11762;DHT22;5938;47.098;15.474;2023-09-18T11:07:41;33.60;77.80
11762;DHT22;5938;47.098;15.474;2023-09-18T11:11:52;31.80;80.60
11762;DHT22;5938;47.098;15.474;2023-09-18T11:16:14;29.80;84.60
11762;DHT22;5938;47.098;15.474;2023-09-18T11:20:24;29.60;87.40
11762;DHT22;5938;47.098;15.474;2023-09-18T11:24:29;28.90;89.20
11762;DHT22;5938;47.098;15.474;2023-09-18T11:28:33;28.90;89.20
11762;DHT22;5938;47.098;15.474;2023-09-18T11:32:41;28.50;90.90
11762;DHT22;5938;47.098;15.474;2023-09-18T11:36:44;27.70;91.50
11762;DHT22;5938;47.098;15.474;2023-09-18T11:40:47;28.30;90.80
11762;DHT22;5938;47.098;15.474;2023-09-18T11:44:52;30.30;87.00
11762;DHT22;5938;47.098;15.474;2023-09-18T11:48:58;33.20;82.20
11762;DHT22;5938;47.098;15.474;2023-09-18T11:53:02;33.40;79.30
11762;DHT22;5938;47.098;15.474;2023-09-18T11:57:06;34.20;76.80
11762;DHT22;5938;47.098;15.474;2023-09-18T12:01:11;34.40;75.30
11762;DHT22;5938;47.098;15.474;2023-09-18T12:05:19;34.70;74.70
11762;DHT22;5938;47.098;15.474;2023-09-18T12:09:22;34.70;73.50
11762;DHT22;5938;47.098;15.474;2023-09-18T12:13:28;32.70;77.60
11762;DHT22;5938;47.098;15.474;2023-09-18T12:17:33;31.70;80.60
11762;DHT22;5938;47.098;15.474;2023-09-18T12:21:42;33.10;77.70
11762;DHT22;5938;47.098;15.474;2023-09-18T12:25:47;32.70;78.20
11762;DHT22;5938;47.098;15.474;2023-09-18T12:29:50;32.30;78.90
11762;DHT22;5938;47.098;15.474;2023-09-18T12:33:54;30.10;83.40
11762;DHT22;5938;47.098;15.474;2023-09-18T12:38:00;28.90;89.20
11762;DHT22;5938;47.098;15.474;2023-09-18T12:42:08;28.10;90.70
11762;DHT22;5938;47.098;15.474;2023-09-18T12:46:12;27.80;91.10
11762;DHT22;5938;47.098;15.474;2023-09-18T12:50:16;27.50;91.50
11762;DHT22;5938;47.098;15.474;2023-09-18T12:54:20;26.70;93.50
11762;DHT22;5938;47.098;15.474;2023-09-18T12:58:24;26.70;93.60
11762;DHT22;5938;47.098;15.474;2023-09-18T13:02:29;26.20;94.00
11762;DHT22;5938;47.098;15.474;2023-09-18T13:06:33;26.10;94.20
11762;DHT22;5938;47.098;15.474;2023-09-18T13:10:48;25.90;93.40
11762;DHT22;5938;47.098;15.474;2023-09-18T13:15:03;25.90;93.90
11762;DHT22;5938;47.098;15.474;2023-09-18T13:19:11;25.60;93.80
11762;DHT22;5938;47.098;15.474;2023-09-18T13:23:15;25.30;94.40
11762;DHT22;5938;47.098;15.474;2023-09-18T13:27:24;25.20;95.30
11762;DHT22;5938;47.098;15.474;2023-09-18T13:31:27;25.30;96.40
11762;DHT22;5938;47.098;15.474;2023-09-18T13:35:33;26.30;96.00
11762;DHT22;5938;47.098;15.474;2023-09-18T13:39:37;28.00;91.70
11762;DHT22;5938;47.098;15.474;2023-09-18T13:43:42;29.80;89.80
11762;DHT22;5938;47.098;15.474;2023-09-18T13:47:47;31.70;83.00
11762;DHT22;5938;47.098;15.474;2023-09-18T13:51:52;30.10;85.70
11762;DHT22;5938;47.098;15.474;2023-09-18T13:55:57;30.40;85.00
11762;DHT22;5938;47.098;15.474;2023-09-18T14:00:03;31.90;81.90
11762;DHT22;5938;47.098;15.474;2023-09-18T14:04:10;31.00;83.20
11762;DHT22;5938;47.098;15.474;2023-09-18T14:08:14;29.00;88.90
11762;DHT22;5938;47.098;15.474;2023-09-18T14:12:19;27.10;91.90
11762;DHT22;5938;47.098;15.474;2023-09-18T14:16:24;26.50;93.50
11762;DHT22;5938;47.098;15.474;2023-09-18T14:20:29;26.40;93.40
11762;DHT22;5938;47.098;15.474;2023-09-18T14:24:34;26.50;93.50
11762;DHT22;5938;47.098;15.474;2023-09-18T14:28:40;26.40;94.00
11762;DHT22;5938;47.098;15.474;2023-09-18T14:32:48;28.70;91.80
11762;DHT22;5938;47.098;15.474;2023-09-18T14:36:53;31.60;85.90
11762;DHT22;5938;47.098;15.474;2023-09-18T14:40:58;32.40;83.60
11762;DHT22;5938;47.098;15.474;2023-09-18T14:45:06;31.00;86.30
11762;DHT22;5938;47.098;15.474;2023-09-18T14:49:13;29.30;89.50
11762;DHT22;5938;47.098;15.474;2023-09-18T14:53:19;28.30;91.00
11762;DHT22;5938;47.098;15.474;2023-09-18T14:57:25;27.10;92.90
11762;DHT22;5938;47.098;15.474;2023-09-18T15:01:30;26.70;94.30
11762;DHT22;5938;47.098;15.474;2023-09-18T15:05:38;26.10;95.60
11762;DHT22;5938;47.098;15.474;2023-09-18T15:09:43;25.80;96.50
11762;DHT22;5938;47.098;15.474;2023-09-18T15:13:48;25.50;97.60
11762;DHT22;5938;47.098;15.474;2023-09-18T15:17:58;25.40;97.60
11762;DHT22;5938;47.098;15.474;2023-09-18T15:22:06;24.90;99.10
11762;DHT22;5938;47.098;15.474;2023-09-18T15:26:13;24.90;99.50
11762;DHT22;5938;47.098;15.474;2023-09-18T15:30:29;24.60;99.90
11762;DHT22;5938;47.098;15.474;2023-09-18T15:34:35;24.30;99.90
11762;DHT22;5938;47.098;15.474;2023-09-18T15:38:47;24.20;99.90
11762;DHT22;5938;47.098;15.474;2023-09-18T15:42:54;23.70;99.90
11762;DHT22;5938;47.098;15.474;2023-09-18T15:47:00;23.20;99.90
11762;DHT22;5938;47.098;15.474;2023-09-18T15:51:08;23.20;99.90
11762;DHT22;5938;47.098;15.474;2023-09-18T15:55:17;23.00;99.90
11762;DHT22;5938;47.098;15.474;2023-09-18T15:59:28;22.60;99.90
11762;DHT22;5938;47.098;15.474;2023-09-18T16:03:35;22.50;99.90
11762;DHT22;5938;47.098;15.474;2023-09-18T16:07:48;22.60;99.90
11762;DHT22;5938;47.098;15.474;2023-09-18T16:11:57;22.50;99.90
11762;DHT22;5938;47.098;15.474;2023-09-18T16:16:04;22.40;99.90
11762;DHT22;5938;47.098;15.474;2023-09-18T16:20:11;22.30;99.90
11762;DHT22;5938;47.098;15.474;2023-09-18T16:24:17;22.00;99.90
11762;DHT22;5938;47.098;15.474;2023-09-18T16:28:26;21.90;99.90
11762;DHT22;5938;47.098;15.474;2023-09-18T16:32:37;21.70;99.90
11762;DHT22;5938;47.098;15.474;2023-09-18T16:36:44;21.60;99.90
11762;DHT22;5938;47.098;15.474;2023-09-18T16:40:53;21.50;99.90
11762;DHT22;5938;47.098;15.474;2023-09-18T16:45:02;21.40;99.90
11762;DHT22;5938;47.098;15.474;2023-09-18T16:49:16;21.20;99.90
11762;DHT22;5938;47.098;15.474;2023-09-18T16:53:30;21.10;99.90
11762;DHT22;5938;47.098;15.474;2023-09-18T16:57:43;20.80;99.90
11762;DHT22;5938;47.098;15.474;2023-09-18T17:01:53;20.70;99.90
11762;DHT22;5938;47.098;15.474;2023-09-18T17:05:59;20.60;99.90
11762;DHT22;5938;47.098;15.474;2023-09-18T17:10:07;20.40;99.90
11762;DHT22;5938;47.098;15.474;2023-09-18T17:14:24;20.20;99.90
11762;DHT22;5938;47.098;15.474;2023-09-18T17:18:37;20.10;99.90
11762;DHT22;5938;47.098;15.474;2023-09-18T17:22:59;19.90;99.90
11762;DHT22;5938;47.098;15.474;2023-09-18T17:27:09;19.70;99.90
11762;DHT22;5938;47.098;15.474;2023-09-18T17:31:16;19.60;99.90
11762;DHT22;5938;47.098;15.474;2023-09-18T17:35:32;19.50;99.90
11762;DHT22;5938;47.098;15.474;2023-09-18T17:39:52;19.40;99.90
11762;DHT22;5938;47.098;15.474;2023-09-18T17:44:05;19.30;99.90
11762;DHT22;5938;47.098;15.474;2023-09-18T17:48:25;19.20;99.90
11762;DHT22;5938;47.098;15.474;2023-09-18T17:52:43;19.10;99.90
11762;DHT22;5938;47.098;15.474;2023-09-18T17:56:59;19.10;99.90
11762;DHT22;5938;47.098;15.474;2023-09-18T18:01:09;19.00;99.90
11762;DHT22;5938;47.098;15.474;2023-09-18T18:05:26;18.90;99.90
11762;DHT22;5938;47.098;15.474;2023-09-18T18:09:42;19.00;99.90
11762;DHT22;5938;47.098;15.474;2023-09-18T18:13:53;18.90;99.90
11762;DHT22;5938;47.098;15.474;2023-09-18T18:19:02;18.90;99.90
11762;DHT22;5938;47.098;15.474;2023-09-18T18:23:33;18.80;99.90
11762;DHT22;5938;47.098;15.474;2023-09-18T18:27:48;18.70;99.90
11762;DHT22;5938;47.098;15.474;2023-09-18T18:32:06;18.70;99.90
11762;DHT22;5938;47.098;15.474;2023-09-18T18:36:17;18.70;99.90
11762;DHT22;5938;47.098;15.474;2023-09-18T18:40:25;18.60;99.90
11762;DHT22;5938;47.098;15.474;2023-09-18T18:44:34;18.50;99.90
11762;DHT22;5938;47.098;15.474;2023-09-18T18:48:50;18.40;99.90
11762;DHT22;5938;47.098;15.474;2023-09-18T18:53:14;18.40;99.90
11762;DHT22;5938;47.098;15.474;2023-09-18T18:57:22;18.20;99.90
11762;DHT22;5938;47.098;15.474;2023-09-18T19:01:32;18.10;99.90
11762;DHT22;5938;47.098;15.474;2023-09-18T19:06:00;18.10;99.90
11762;DHT22;5938;47.098;15.474;2023-09-18T19:10:09;18.10;99.90
11762;DHT22;5938;47.098;15.474;2023-09-18T19:14:23;18.00;99.90
11762;DHT22;5938;47.098;15.474;2023-09-18T19:18:38;17.90;99.90
11762;DHT22;5938;47.098;15.474;2023-09-18T19:22:46;17.90;99.90
11762;DHT22;5938;47.098;15.474;2023-09-18T19:27:03;17.90;99.90
11762;DHT22;5938;47.098;15.474;2023-09-18T19:31:22;17.80;99.90
11762;DHT22;5938;47.098;15.474;2023-09-18T19:35:31;17.80;99.90
11762;DHT22;5938;47.098;15.474;2023-09-18T19:39:42;17.80;99.90
11762;DHT22;5938;47.098;15.474;2023-09-18T19:43:50;17.80;99.90
11762;DHT22;5938;47.098;15.474;2023-09-18T19:47:57;17.80;99.90
11762;DHT22;5938;47.098;15.474;2023-09-18T19:52:07;17.70;99.90
11762;DHT22;5938;47.098;15.474;2023-09-18T19:56:38;17.50;99.90
11762;DHT22;5938;47.098;15.474;2023-09-18T20:00:45;17.50;99.90
11762;DHT22;5938;47.098;15.474;2023-09-18T20:04:51;17.40;99.90
11762;DHT22;5938;47.098;15.474;2023-09-18T20:09:06;17.40;99.90
11762;DHT22;5938;47.098;15.474;2023-09-18T20:13:13;17.40;99.90
11762;DHT22;5938;47.098;15.474;2023-09-18T20:17:25;17.40;99.90
11762;DHT22;5938;47.098;15.474;2023-09-18T20:21:36;17.40;99.90
11762;DHT22;5938;47.098;15.474;2023-09-18T20:25:44;17.40;99.90
11762;DHT22;5938;47.098;15.474;2023-09-18T20:29:49;17.50;99.90
11762;DHT22;5938;47.098;15.474;2023-09-18T20:33:57;17.50;99.90
11762;DHT22;5938;47.098;15.474;2023-09-18T20:38:03;17.60;99.90
11762;DHT22;5938;47.098;15.474;2023-09-18T20:42:18;17.50;99.90
11762;DHT22;5938;47.098;15.474;2023-09-18T20:46:25;17.50;99.90
11762;DHT22;5938;47.098;15.474;2023-09-18T20:50:29;17.40;99.90
11762;DHT22;5938;47.098;15.474;2023-09-18T20:54:35;17.40;99.90
11762;DHT22;5938;47.098;15.474;2023-09-18T20:58:41;17.40;99.90
11762;DHT22;5938;47.098;15.474;2023-09-18T21:02:44;17.40;99.90
11762;DHT22;5938;47.098;15.474;2023-09-18T21:06:50;17.30;99.90
11762;DHT22;5938;47.098;15.474;2023-09-18T21:10:55;17.30;99.90
11762;DHT22;5938;47.098;15.474;2023-09-18T21:15:03;17.30;99.90
11762;DHT22;5938;47.098;15.474;2023-09-18T21:19:15;17.30;99.90
11762;DHT22;5938;47.098;15.474;2023-09-18T23:13:31;17.20;99.90
11762;DHT22;5938;47.098;15.474;2023-09-18T23:18:10;17.20;99.90
11762;DHT22;5938;47.098;15.474;2023-09-18T23:23:15;17.10;99.90
11762;DHT22;5938;47.098;15.474;2023-09-18T23:27:52;17.20;99.90
11762;DHT22;5938;47.098;15.474;2023-09-18T23:32:46;17.20;99.90
11762;DHT22;5938;47.098;15.474;2023-09-18T23:37:31;17.20;99.90
11762;DHT22;5938;47.098;15.474;2023-09-18T23:42:18;17.20;99.90
11762;DHT22;5938;47.098;15.474;2023-09-18T23:47:18;17.20;99.90
11762;DHT22;5938;47.098;15.474;2023-09-18T23:51:38;17.30;99.90
11762;DHT22;5938;47.098;15.474;2023-09-18T23:55:55;17.20;99.90
